x

Port Orford - 15 Nm West Of Port Orford, Or (46015) Wave Buoy

7:50am - Mon 22nd Dec 2014 All times are PST. -8 hours from GMT.

  • Sig Wave height 11.5ft
  • Swell Direction
  • Peak Period 13s
  • Average Period 9s
  • Wind
    2mph, 7mph gusts
  • Sea Temp 58°f
  • Air Temp 57°f
  • Sea Pressure 1027.3mb
  • Port Orford - 15 Nm West Of Port Orford, Or
  • Port Orford - 15 Nm West Of Port Orford, Or

More Historic Weather Station data

Upgrade to MSW Pro to gain access to the past 30 days of data for over 8000 Wavebouys and Weather Stations around the globe.

Join Pro

Comparision Forecast

View Surf forecast
   
Mon 12/22 7:50am 11.5ft 13s 9s 2 7 mph 1027.3mb 58f 57f
6:50am 11ft 12s 9s 4 9 mph 1027.1mb 58f 57f
5:50am 11ft 14s 9s 9 11 mph 1027.1mb 58f 57f
4:50am 12ft 14s 9s 13 16 mph 1027.2mb 58f 57f
3:50am 10ft 14s 8s 11 16 mph 1026.5mb 58f 57f
2:50am 13ft 14s 10s 16 18 mph 1026.1mb 58f 57f
1:50am 10.5ft 14s 8s 16 18 mph 1025.6mb 58f 57f
12:50am 12.5ft 14s 9s 18 22 mph 1025.2mb 58f 57f
Sun 12/21 11:50pm 12ft 13s 8s 18 22 mph 1024.8mb 58f 57f
10:50pm 13.5ft 13s 9s 20 22 mph 1024.7mb 58f 57f
9:50pm 13.5ft 15s 9s 20 25 mph 1025.1mb 58f 57f
8:50pm 12.5ft 14s 9s 18 22 mph 1024.7mb 58f 57f
7:50pm 12.5ft 13s 9s 16 20 mph 1024.8mb 58f 57f
6:50pm 12ft 13s 9s 18 20 mph 1024.6mb 58f 57f
5:50pm 13.5ft 14s 9s 16 18 mph 1024.4mb 58f 57f
4:50pm 13ft 11s 9s 13 16 mph 1024.4mb 58f 57f
3:50pm 13ft 13s 9s 13 16 mph 1024.1mb 58f 57f
2:50pm 13ft 12s 9s 18 22 mph 1023.5mb 58f 57f
1:50pm 13ft 14s 9s 18 22 mph 1022.8mb 58f 57f
12:50pm 13ft 14s 9s 18 20 mph 1022.6mb 58f 57f
11:50am 13ft 14s 9s 18 20 mph 1022.8mb 58f 57f
10:50am 12.5ft 13s 9s 16 20 mph 1022.6mb 58f 57f
9:50am 13ft 14s 9s 16 20 mph 1022mb 57f 57f
8:50am 13ft 14s 9s 16 20 mph 1021mb 57f 57f
7:50am 14ft 15s 9s 16 20 mph 1020.3mb 57f 57f
6:50am 14ft 15s 9s 18 20 mph 1019.5mb 57f 57f
5:50am 14ft 14s 9s 16 20 mph 1019mb 57f 57f
4:50am 14ft 13s 9s 18 22 mph 1019.2mb 57f 57f
3:50am 15.5ft 13s 9s 20 25 mph 1018.6mb 58f 57f
2:50am 16.5ft 13s 9s 20 25 mph 1018.8mb 58f 57f
1:50am 17.5ft 12s 9s 22 27 mph 1017.8mb 58f 58f
12:50am 18ft 12s 9s 22 27 mph 1016.7mb 58f 58f
Sat 12/20 11:50pm 17.5ft 14s 9s 22 27 mph 1016.4mb 58f 58f
10:50pm 18.5ft 12s 9s 22 27 mph 1016.5mb 58f 58f
9:50pm 17.5ft 14s 9s 22 29 mph 1016mb 58f 58f
8:50pm 17ft 13s 9s 22 29 mph 1015.1mb 58f 58f
7:50pm 16.5ft 15s 9s 25 29 mph 1014.2mb 58f 58f
6:50pm 17.5ft 14s 9s 22 29 mph 1014mb 58f 58f
5:50pm 16.5ft 15s 9s 22 29 mph 1013.4mb 58f 58f
4:50pm 17.5ft 15s 9s 22 29 mph 1012.8mb 58f 58f
3:50pm 16ft 15s 9s 22 27 mph 1012.4mb 58f 58f
2:50pm 18.5ft 16s 9s 22 27 mph 1011.8mb 58f 58f
1:50pm 18.5ft 16s 9s 22 27 mph 1011.1mb 58f 58f
12:50pm 17ft 11s 8s 25 31 mph 1010.7mb 58f 58f
11:50am 19.5ft 16s 9s 27 31 mph 1010.9mb 58f 57f
10:50am 19.5ft 14s 8s 31 38 mph 1010.6mb 58f 57f
9:50am 19.5ft 16s 8s 34 43 mph 1009.7mb 58f 56f
8:50am 19.5ft 13s 8s 36 43 mph 1009.5mb 58f 56f
7:50am 20.5ft 17s 9s 36 47 mph 1008.8mb 58f 56f
6:50am 20.5ft 14s 9s 36 43 mph 1009.1mb 58f 55f
5:50am 19.5ft 17s 9s 36 43 mph 1009.3mb 58f 55f
4:50am 19.5ft 16s 9s 34 40 mph 1010.2mb 58f 55f
3:50am 19.5ft 17s 9s 31 40 mph 1011.2mb 58f 56f
2:50am 18.5ft 16s 9s 34 40 mph 1011.6mb 58f 56f
1:50am 21.5ft 17s 10s 29 36 mph 1012.4mb 57f 56f
12:50am 18.5ft 17s 9s 31 36 mph 1012.7mb 57f 56f
Fri 12/19 11:50pm 21.5ft 17s 10s 27 31 mph 1012.8mb 58f 55f
10:50pm 19ft 17s 10s 31 38 mph 1013.2mb 58f 56f
9:50pm 18.5ft 19s 10s 29 36 mph 1013mb 58f 55f
8:50pm 16ft 17s 10s 29 34 mph 1014.3mb 58f 55f
7:50pm 16.5ft 17s 10s 25 29 mph 1015.3mb 58f 56f
6:50pm 15.5ft 17s 9s 25 29 mph 1015.1mb 58f 57f
5:50pm 15.5ft 19s 9s 27 31 mph 1014.3mb 58f 56f
4:50pm 17.5ft 19s 10s 25 29 mph 1015.4mb 58f 56f
3:50pm 17.5ft 19s 10s 22 27 mph 1016.4mb 58f 56f
2:50pm 16ft 19s 10s 22 27 mph 1015.8mb 58f 56f
1:50pm 16ft 19s 10s 22 27 mph 1016mb 58f 56f
12:50pm 16.5ft 19s 10s 18 22 mph 1016.8mb 58f 56f
11:50am 15ft 19s 10s 18 20 mph 1016.8mb 58f 56f
10:50am 14.5ft 19s 9s 18 22 mph 1016.9mb 58f 56f
9:50am 13ft 11s 9s 18 20 mph 1016.4mb 58f 56f
8:50am 13ft 12s 9s 16 20 mph 1015.8mb 58f 55f
7:50am 13.5ft 11s 9s 18 20 mph 1015.4mb 58f 55f
6:50am 13ft 11s 8s 18 20 mph 1015mb 58f 55f
5:50am 11ft 12s 8s 16 20 mph 1014.6mb 58f 54f
4:50am 9.5ft 12s 7s 16 20 mph 1014.3mb 58f 53f
3:50am 10ft 12s 8s 20 29 mph 1014.3mb 58f 50f
2:50am 10ft 11s 7s 20 25 mph 1013.8mb 58f 55f
1:50am 10ft 8s 7s 20 25 mph 1013.5mb 58f 56f
12:50am 11ft 8s 7s 20 22 mph 1013.4mb 58f 55f
Thu 12/18 11:50pm 12ft 13s 8s 22 25 mph 1013.6mb 58f 55f
10:50pm 12ft 8s 7s 18 22 mph 1013.2mb 58f 55f
9:50pm 13ft 8s 7s 20 22 mph 1012.7mb 58f 53f
8:50pm 13ft 9s 7s 18 25 mph 1012.2mb 58f 53f
7:50pm 15.5ft 8s 7s 18 22 mph 1011.3mb 58f 52f
6:50pm 15.5ft 8s 7s 38 47 mph 1009.4mb 58f 56f
5:50pm 15ft 8s 7s 43 54 mph 1008.8mb 58f 55f